sim
Sign-in with your pilot id or email,
or register
Callsign
Passwort

Schedule Details

Flight Number: OEO4045
Departure: Paris Charles de Gaulle Airport (LFPG) at 05:05
Arrival: Munich Airport (EDDM) at 06:35

Weather Information
Getting current METAR information for LFPG 192200Z 03005KT 020V080 CAVOK 19/17 Q1013 NOSIG
Getting current METAR information for EDDM 192150Z VRB01KT CAVOK 10/09 Q1018 NOSIG

Schedule Frequency

Route Map